createdAt,value
2019-04-20T00:01:26.293Z,79.00
2019-04-20T00:03:53.527Z,79.60
2019-04-20T00:06:23.313Z,80.00
2019-04-20T00:09:03.054Z,79.80
2019-04-20T00:11:29.548Z,80.30
2019-04-20T00:14:04.127Z,80.50
2019-04-20T00:16:27.225Z,80.40
2019-04-20T00:19:00.294Z,80.40
2019-04-20T00:21:52.567Z,80.20
2019-04-20T00:24:25.671Z,80.60
2019-04-20T00:29:40.583Z,81.10
2019-04-20T00:32:06.086Z,81.00
2019-04-20T00:34:30.486Z,81.60
2019-04-20T00:36:58.153Z,81.30
2019-04-20T00:39:27.965Z,81.40
2019-04-20T00:42:03.573Z,80.70
2019-04-20T00:44:34.201Z,80.40
2019-04-20T00:47:12.915Z,80.70
2019-04-20T00:49:44.497Z,80.90
2019-04-20T00:52:31.085Z,80.90
2019-04-20T00:54:34.910Z,80.90
2019-04-20T00:57:13.321Z,81.00
2019-04-20T01:00:03.605Z,80.80
2019-04-20T01:02:22.189Z,80.30
2019-04-20T01:04:57.841Z,79.40
2019-04-20T01:07:35.090Z,79.00
2019-04-20T01:10:05.091Z,78.50
2019-04-20T01:12:37.443Z,77.60
2019-04-20T01:15:11.311Z,77.80
2019-04-20T01:17:41.662Z,77.70
2019-04-20T01:20:10.777Z,77.60
2019-04-20T01:22:50.496Z,77.60
2019-04-20T01:25:18.192Z,77.60
2019-04-20T01:28:06.655Z,77.90
2019-04-20T01:30:24.919Z,77.90
2019-04-20T01:33:00.182Z,77.90
2019-04-20T01:35:39.619Z,78.30
2019-04-20T01:38:07.459Z,78.30
2019-04-20T01:40:21.022Z,78.60
2019-04-20T01:42:51.193Z,78.80
2019-04-20T01:45:27.471Z,79.10
2019-04-20T01:47:54.874Z,79.30
2019-04-20T01:50:27.629Z,78.90
2019-04-20T01:53:08.628Z,79.20
2019-04-20T01:55:42.525Z,79.30
2019-04-20T01:58:36.400Z,79.50
2019-04-20T02:01:25.073Z,80.40
2019-04-20T02:04:11.665Z,80.70
2019-04-20T02:06:43.552Z,81.60
2019-04-20T02:09:16.699Z,81.70
2019-04-20T02:11:45.371Z,82.30
2019-04-20T02:14:14.330Z,82.60
2019-04-20T02:16:49.141Z,82.90
2019-04-20T02:19:30.706Z,83.30
2019-04-20T02:22:01.510Z,83.50
2019-04-20T02:24:19.485Z,83.50
2019-04-20T02:26:50.244Z,84.00
2019-04-20T02:29:40.646Z,84.60
2019-04-20T02:35:18.689Z,85.60
2019-04-20T02:38:12.255Z,86.40
2019-04-20T02:40:47.737Z,87.00
2019-04-20T02:43:15.658Z,87.40
2019-04-20T02:45:52.859Z,87.40
2019-04-20T02:48:07.734Z,88.00
2019-04-20T02:50:43.274Z,88.20
2019-04-20T02:55:48.151Z,88.60
2019-04-20T02:58:15.240Z,88.80
2019-04-20T03:00:43.250Z,89.10
2019-04-20T03:03:03.472Z,89.20
2019-04-20T03:05:34.115Z,89.50
2019-04-20T03:08:08.967Z,89.90
2019-04-20T03:10:46.335Z,90.10
2019-04-20T03:13:15.641Z,90.30
2019-04-20T03:15:51.876Z,90.50
2019-04-20T03:18:13.547Z,90.80
2019-04-20T03:20:53.685Z,91.00
2019-04-20T03:23:30.100Z,90.90
2019-04-20T03:26:10.983Z,91.10
2019-04-20T03:29:03.977Z,91.20
2019-04-20T03:32:10.298Z,91.40
2019-04-20T03:36:53.071Z,91.50
2019-04-20T03:39:16.779Z,91.60
2019-04-20T03:41:34.963Z,91.70
2019-04-20T03:44:03.192Z,91.80
2019-04-20T03:46:36.629Z,92.00
2019-04-20T03:49:21.435Z,92.10
2019-04-20T03:51:55.458Z,92.00
2019-04-20T03:54:22.248Z,92.00
2019-04-20T03:57:13.731Z,92.10
2019-04-20T03:59:55.072Z,92.00
2019-04-20T04:02:54.235Z,92.10
2019-04-20T04:05:28.840Z,92.00
2019-04-20T04:07:50.789Z,92.10
2019-04-20T04:10:29.297Z,92.20
2019-04-20T04:13:09.883Z,92.40
2019-04-20T04:15:47.909Z,92.30
2019-04-20T04:18:19.810Z,92.40
2019-04-20T04:20:51.541Z,92.40
2019-04-20T04:23:33.664Z,92.30
2019-04-20T04:26:05.963Z,92.50
2019-04-20T04:28:31.163Z,92.60
2019-04-20T04:31:07.883Z,92.40
2019-04-20T04:33:52.002Z,92.50
2019-04-20T04:36:10.210Z,92.50
2019-04-20T04:38:58.853Z,92.60
2019-04-20T04:41:20.265Z,92.50
2019-04-20T04:43:48.290Z,92.10
2019-04-20T04:45:57.442Z,91.60
2019-04-20T04:48:34.410Z,91.80
2019-04-20T04:51:06.239Z,91.70
2019-04-20T04:53:43.035Z,91.70
2019-04-20T04:56:08.539Z,91.70
2019-04-20T04:58:34.007Z,91.50
2019-04-20T05:01:10.704Z,91.00
2019-04-20T05:03:58.260Z,90.90
2019-04-20T05:06:29.130Z,90.40
2019-04-20T05:08:45.477Z,89.50
2019-04-20T05:11:13.178Z,89.10
2019-04-20T05:13:50.872Z,87.70
2019-04-20T05:16:37.476Z,86.20
2019-04-20T05:19:11.587Z,84.10
2019-04-20T05:21:59.849Z,83.80
2019-04-20T05:24:33.890Z,83.50
2019-04-20T05:27:34.864Z,82.90
2019-04-20T05:29:44.547Z,82.70
2019-04-20T05:32:18.579Z,82.80
2019-04-20T05:35:11.136Z,83.20
2019-04-20T05:37:41.374Z,83.90
2019-04-20T05:40:11.888Z,85.10
2019-04-20T05:42:48.353Z,85.70
2019-04-20T05:45:16.261Z,85.80
2019-04-20T05:47:49.273Z,85.70
2019-04-20T05:50:24.560Z,85.20
2019-04-20T05:53:03.267Z,85.00
2019-04-20T05:55:27.827Z,85.00
2019-04-20T05:58:02.086Z,84.60
2019-04-20T06:00:34.233Z,84.10
2019-04-20T06:03:00.737Z,83.00
2019-04-20T06:05:36.326Z,82.70
2019-04-20T06:08:09.371Z,83.60
2019-04-20T06:10:39.665Z,82.20
2019-04-20T06:13:07.595Z,82.10
2019-04-20T06:15:44.651Z,81.90
2019-04-20T06:18:25.615Z,81.00
2019-04-20T06:21:02.301Z,79.80
2019-04-20T06:23:49.631Z,79.30
2019-04-20T06:26:38.268Z,78.90
2019-04-20T06:28:37.777Z,78.30
2019-04-20T06:31:18.922Z,76.80
2019-04-20T06:34:27.157Z,75.40
2019-04-20T06:36:53.939Z,74.80
2019-04-20T06:39:20.432Z,74.10
2019-04-20T06:44:32.036Z,73.20
2019-04-20T06:49:31.454Z,72.20
2019-04-20T06:52:21.648Z,72.50
2019-04-20T06:55:05.633Z,71.70
2019-04-20T07:00:20.048Z,69.40
2019-04-20T07:02:53.981Z,68.40
2019-04-20T07:05:26.011Z,67.60
2019-04-20T07:07:47.966Z,66.80
2019-04-20T07:10:33.289Z,66.30
2019-04-20T07:12:41.916Z,66.20
2019-04-20T07:15:17.475Z,65.70
2019-04-20T07:17:57.702Z,65.10
2019-04-20T07:20:46.135Z,64.80
2019-04-20T07:23:28.107Z,65.10
2019-04-20T07:25:44.695Z,65.40
2019-04-20T07:28:19.728Z,65.50
2019-04-20T07:30:45.171Z,66.00
2019-04-20T07:33:20.018Z,65.80
2019-04-20T07:35:49.297Z,65.50
2019-04-20T07:40:50.627Z,64.80
2019-04-20T07:43:19.792Z,64.40
2019-04-20T07:45:48.796Z,63.90
2019-04-20T07:48:21.169Z,64.50
2019-04-20T07:50:44.979Z,63.40
2019-04-20T07:53:24.605Z,62.40
2019-04-20T07:56:02.434Z,61.90
2019-04-20T07:58:18.191Z,61.50
2019-04-20T08:01:12.922Z,60.40
2019-04-20T08:03:50.399Z,59.50
2019-04-20T08:06:30.285Z,57.90
2019-04-20T08:09:07.338Z,56.80
2019-04-20T08:11:52.751Z,55.70
2019-04-20T08:14:22.455Z,54.80
2019-04-20T08:16:58.652Z,54.00
2019-04-20T08:19:17.377Z,52.80
2019-04-20T08:22:09.498Z,52.30
2019-04-20T08:24:17.105Z,51.60
2019-04-20T08:26:40.143Z,51.20
2019-04-20T08:29:37.865Z,50.80
2019-04-20T08:32:38.993Z,50.00
2019-04-20T08:35:17.814Z,48.60
2019-04-20T08:37:48.889Z,48.40
2019-04-20T08:40:22.045Z,47.70
2019-04-20T08:42:58.071Z,46.70
2019-04-20T08:45:23.968Z,46.30
2019-04-20T08:47:56.620Z,45.00
2019-04-20T08:50:22.486Z,45.00
2019-04-20T08:53:12.745Z,44.50
2019-04-20T08:55:19.983Z,44.50
2019-04-20T08:57:35.562Z,43.30
2019-04-20T09:00:09.046Z,42.80
2019-04-20T09:02:41.220Z,43.40
2019-04-20T09:05:28.548Z,43.30
2019-04-20T09:07:53.851Z,42.70
2019-04-20T09:10:39.532Z,41.50
2019-04-20T09:13:02.603Z,41.20
2019-04-20T09:15:19.166Z,41.00
2019-04-20T09:18:03.374Z,41.30
2019-04-20T09:20:42.347Z,40.50
2019-04-20T09:23:18.581Z,39.70
2019-04-20T09:26:00.309Z,40.80
2019-04-20T09:28:40.527Z,40.70
2019-04-20T09:31:28.240Z,40.80
2019-04-20T09:34:16.297Z,40.70
2019-04-20T09:36:51.608Z,40.40
2019-04-20T09:39:35.943Z,40.80
2019-04-20T09:42:27.518Z,41.30
2019-04-20T09:44:59.733Z,41.00
2019-04-20T09:47:36.893Z,40.50
2019-04-20T09:50:18.741Z,40.70
2019-04-20T09:52:49.060Z,40.50
2019-04-20T09:55:16.373Z,39.80
2019-04-20T09:57:50.226Z,39.30
2019-04-20T10:00:23.558Z,39.80
2019-04-20T10:02:39.276Z,40.60
2019-04-20T10:05:09.415Z,39.80
2019-04-20T10:07:40.617Z,39.10
2019-04-20T10:10:21.391Z,38.80
2019-04-20T10:12:41.916Z,38.30
2019-04-20T10:15:17.937Z,37.70
2019-04-20T10:17:43.685Z,37.60
2019-04-20T10:20:20.821Z,38.10
2019-04-20T10:22:44.806Z,37.40
2019-04-20T10:25:15.000Z,37.20
2019-04-20T10:27:45.431Z,37.50
2019-04-20T10:30:16.603Z,37.20
2019-04-20T10:32:50.564Z,36.60
2019-04-20T10:35:18.848Z,36.60
2019-04-20T10:37:53.506Z,37.00
2019-04-20T10:40:38.029Z,36.40
2019-04-20T10:42:55.178Z,36.10
2019-04-20T10:45:26.795Z,36.20
2019-04-20T10:47:56.977Z,35.90
2019-04-20T10:50:27.140Z,35.60
2019-04-20T10:52:56.761Z,35.50
2019-04-20T10:55:27.242Z,35.50
2019-04-20T10:57:57.646Z,35.90
2019-04-20T11:00:41.960Z,34.60
2019-04-20T11:03:13.520Z,35.10
2019-04-20T11:05:44.705Z,35.00
2019-04-20T11:08:14.848Z,34.60
2019-04-20T11:10:55.434Z,33.10
2019-04-20T11:13:17.123Z,34.20
2019-04-20T11:15:46.701Z,33.80
2019-04-20T11:18:17.595Z,33.30
2019-04-20T11:20:47.328Z,33.30
2019-04-20T11:23:18.144Z,34.60
2019-04-20T11:25:48.325Z,34.50
2019-04-20T11:28:17.996Z,34.20
2019-04-20T11:30:48.075Z,34.10
2019-04-20T11:33:18.234Z,34.80
2019-04-20T11:35:48.538Z,34.20
2019-04-20T11:38:19.727Z,33.70
2019-04-20T11:41:02.747Z,34.90
2019-04-20T11:43:21.774Z,33.60
2019-04-20T11:45:51.390Z,33.80
2019-04-20T11:48:21.370Z,34.10
2019-04-20T11:50:51.677Z,33.80
2019-04-20T11:53:21.569Z,34.00
2019-04-20T11:55:52.109Z,32.60
2019-04-20T11:58:21.838Z,33.00
2019-04-20T12:01:02.729Z,33.20
2019-04-20T12:03:34.882Z,34.30
2019-04-20T12:05:59.784Z,34.80
2019-04-20T12:08:29.240Z,33.50
2019-04-20T12:11:03.099Z,33.90
2019-04-20T12:13:30.963Z,34.10
2019-04-20T12:16:01.558Z,33.80
2019-04-20T12:18:31.687Z,33.10
2019-04-20T12:21:01.428Z,33.00
2019-04-20T12:23:32.242Z,32.30
2019-04-20T12:26:02.065Z,32.50
2019-04-20T12:28:31.681Z,32.60
2019-04-20T12:31:09.837Z,32.70
2019-04-20T12:33:32.635Z,32.50
2019-04-20T12:36:03.119Z,32.40
2019-04-20T12:38:32.891Z,32.50
2019-04-20T12:41:04.882Z,32.70
2019-04-20T12:43:33.993Z,32.70
2019-04-20T12:46:03.642Z,32.60
2019-04-20T12:48:33.636Z,32.60
2019-04-20T12:51:03.748Z,32.30
2019-04-20T12:53:34.840Z,32.50
2019-04-20T12:56:04.488Z,34.00
2019-04-20T12:58:34.647Z,33.10
2019-04-20T13:01:04.580Z,33.40
2019-04-20T13:03:35.238Z,33.40
2019-04-20T13:06:05.877Z,34.10
2019-04-20T13:08:41.172Z,33.70
2019-04-20T13:11:13.024Z,34.30
2019-04-20T13:14:08.455Z,34.50
2019-04-20T13:16:38.822Z,34.20
2019-04-20T13:19:08.970Z,34.80
2019-04-20T13:21:39.087Z,34.70
2019-04-20T13:24:09.301Z,34.60
2019-04-20T13:26:38.964Z,35.20
2019-04-20T13:29:08.833Z,35.30
2019-04-20T13:31:38.405Z,35.50
2019-04-20T13:34:09.627Z,35.40
2019-04-20T13:36:40.032Z,35.40
2019-04-20T13:39:10.164Z,35.90
2019-04-20T13:41:40.067Z,35.50
2019-04-20T13:44:09.683Z,36.20
2019-04-20T13:46:39.289Z,36.30
2019-04-20T13:49:09.270Z,36.10
2019-04-20T13:51:39.179Z,36.80
2019-04-20T13:54:13.896Z,36.90
2019-04-20T13:56:41.770Z,37.20
2019-04-20T13:59:30.272Z,37.50
2019-04-20T14:02:18.786Z,37.00
2019-04-20T14:04:54.974Z,36.70
2019-04-20T14:07:25.515Z,37.00
2019-04-20T14:09:55.359Z,36.80
2019-04-20T14:12:30.717Z,36.70
2019-04-20T14:14:57.278Z,36.50
2019-04-20T14:17:26.892Z,36.70
2019-04-20T14:19:57.140Z,36.60
2019-04-20T14:22:27.238Z,36.30
2019-04-20T14:24:57.330Z,35.80
2019-04-20T14:27:27.019Z,35.40
2019-04-20T14:29:57.080Z,34.50
2019-04-20T14:32:27.109Z,34.50
2019-04-20T14:34:56.858Z,33.80
2019-04-20T14:37:26.739Z,33.60
2019-04-20T14:39:56.482Z,33.60
2019-04-20T14:42:35.463Z,33.20
2019-04-20T14:44:57.598Z,32.70
2019-04-20T14:47:27.898Z,32.50
2019-04-20T14:49:59.870Z,32.80
2019-04-20T14:52:29.326Z,33.00
2019-04-20T14:54:59.523Z,32.90
2019-04-20T14:57:29.812Z,33.00
2019-04-20T15:00:03.657Z,33.20
2019-04-20T15:02:34.252Z,34.40
2019-04-20T15:05:05.320Z,34.80
2019-04-20T15:07:36.334Z,35.80
2019-04-20T15:10:06.914Z,36.70
2019-04-20T15:12:47.396Z,37.50
2019-04-20T15:15:08.478Z,38.40
2019-04-20T15:17:48.594Z,39.40
2019-04-20T15:20:39.610Z,40.10
2019-04-20T15:23:23.686Z,40.10
2019-04-20T15:25:54.715Z,41.80
2019-04-20T15:28:24.454Z,41.80
2019-04-20T15:30:54.272Z,41.40
2019-04-20T15:33:24.948Z,41.50
2019-04-20T15:35:55.820Z,42.10
2019-04-20T15:38:25.507Z,41.70
2019-04-20T15:40:55.412Z,43.60
2019-04-20T15:43:27.886Z,44.20
2019-04-20T15:45:57.296Z,45.20
2019-04-20T15:48:28.043Z,45.80
2019-04-20T15:50:58.197Z,46.60
2019-04-20T15:53:29.131Z,47.10
2019-04-20T15:56:01.437Z,47.20
2019-04-20T15:58:30.335Z,47.40
2019-04-20T16:01:00.702Z,47.90
2019-04-20T16:03:41.634Z,48.20
2019-04-20T16:06:13.429Z,48.20
2019-04-20T16:08:48.079Z,48.80
2019-04-20T16:11:19.243Z,49.30
2019-04-20T16:13:53.396Z,49.50
2019-04-20T16:16:21.545Z,49.80
2019-04-20T16:18:52.704Z,50.30
2019-04-20T16:21:26.064Z,50.70
2019-04-20T16:24:06.720Z,50.80
2019-04-20T16:26:55.716Z,50.80
2019-04-20T16:29:25.878Z,51.10
2019-04-20T16:31:56.336Z,51.30
2019-04-20T16:34:27.505Z,51.50
2019-04-20T16:36:58.667Z,51.50
2019-04-20T16:39:28.493Z,51.70
2019-04-20T16:41:58.343Z,51.60
2019-04-20T16:44:29.210Z,52.10
2019-04-20T16:46:58.920Z,52.30
2019-04-20T16:49:28.822Z,52.60
2019-04-20T16:51:58.850Z,53.00
2019-04-20T16:54:29.981Z,53.00
2019-04-20T16:57:00.488Z,53.00
2019-04-20T16:59:34.923Z,52.90
2019-04-20T17:02:02.477Z,53.00
2019-04-20T17:04:33.700Z,53.30
2019-04-20T17:07:20.791Z,53.60
2019-04-20T17:09:51.844Z,53.70
2019-04-20T17:12:21.748Z,53.90
2019-04-20T17:14:51.670Z,54.20
2019-04-20T17:17:21.937Z,54.20
2019-04-20T17:19:51.600Z,54.00
2019-04-20T17:22:21.488Z,53.90
2019-04-20T17:24:51.496Z,53.90
2019-04-20T17:27:49.280Z,54.00
2019-04-20T17:30:52.899Z,54.00
2019-04-20T17:33:29.934Z,54.20
2019-04-20T17:36:08.873Z,54.30
2019-04-20T17:38:37.497Z,54.70
2019-04-20T17:41:17.888Z,55.00
2019-04-20T17:43:56.694Z,55.00
2019-04-20T17:46:17.829Z,55.40
2019-04-20T17:48:58.803Z,55.70
2019-04-20T17:51:27.754Z,56.10
2019-04-20T17:54:05.347Z,56.00
2019-04-20T17:56:38.436Z,56.10
2019-04-20T17:59:08.206Z,56.10
2019-04-20T18:02:17.774Z,56.50
2019-04-20T18:05:23.021Z,56.90
2019-04-20T18:07:54.737Z,57.30
2019-04-20T18:10:22.502Z,57.20
2019-04-20T18:12:44.025Z,57.00
2019-04-20T18:15:27.859Z,57.20
2019-04-20T18:18:23.904Z,57.50
2019-04-20T18:20:54.731Z,57.80
2019-04-20T18:23:33.419Z,58.30
2019-04-20T18:26:17.178Z,58.50
2019-04-20T18:28:54.849Z,58.70
2019-04-20T18:31:13.602Z,59.20
2019-04-20T18:33:44.492Z,59.50
2019-04-20T18:36:23.447Z,59.70
2019-04-20T18:38:54.026Z,59.90
2019-04-20T18:41:31.780Z,59.60
2019-04-20T18:43:52.287Z,60.20
2019-04-20T18:46:39.299Z,60.60
2019-04-20T18:49:09.989Z,61.60
2019-04-20T18:51:21.943Z,61.50
2019-04-20T18:53:53.442Z,61.40
2019-04-20T18:56:28.396Z,61.20
2019-04-20T18:58:55.593Z,61.40
2019-04-20T19:01:30.966Z,61.50
2019-04-20T19:03:57.325Z,62.20
2019-04-20T19:06:27.737Z,62.30
2019-04-20T19:08:58.861Z,61.90
2019-04-20T19:11:28.881Z,62.00
2019-04-20T19:14:28.586Z,62.30
2019-04-20T19:17:04.255Z,62.50
2019-04-20T19:19:37.445Z,62.80
2019-04-20T19:22:01.789Z,62.80
2019-04-20T19:24:36.034Z,63.00
2019-04-20T19:27:06.648Z,63.30
2019-04-20T19:29:40.411Z,63.20
2019-04-20T19:32:25.047Z,62.60
2019-04-20T19:34:54.096Z,62.30
2019-04-20T19:37:15.697Z,62.50
2019-04-20T19:39:54.663Z,63.10
2019-04-20T19:42:23.041Z,63.50
2019-04-20T19:44:56.577Z,64.00
2019-04-20T19:47:32.609Z,64.50
2019-04-20T19:50:00.404Z,64.70
2019-04-20T19:52:57.076Z,65.10
2019-04-20T19:55:06.685Z,65.20
2019-04-20T19:57:37.173Z,65.60
2019-04-20T19:59:52.786Z,65.90
2019-04-20T20:02:21.497Z,66.70
2019-04-20T20:04:57.273Z,66.70
2019-04-20T20:07:31.772Z,67.60
2019-04-20T20:09:58.227Z,68.00
2019-04-20T20:12:25.476Z,68.40
2019-04-20T20:14:55.496Z,68.80
2019-04-20T20:17:43.762Z,68.80
2019-04-20T20:20:21.549Z,68.80
2019-04-20T20:22:34.220Z,69.00
2019-04-20T20:24:59.024Z,69.40
2019-04-20T20:27:39.404Z,70.70
2019-04-20T20:30:09.238Z,70.30
2019-04-20T20:32:46.999Z,70.60
2019-04-20T20:35:12.645Z,71.10
2019-04-20T20:37:44.857Z,71.00
2019-04-20T20:40:16.117Z,71.40
2019-04-20T20:42:52.966Z,71.70
2019-04-20T20:45:21.059Z,71.90
2019-04-20T20:48:01.631Z,72.10
2019-04-20T20:50:33.831Z,73.00
2019-04-20T20:52:54.726Z,73.20
2019-04-20T20:55:28.477Z,73.60
2019-04-20T20:57:57.509Z,73.30
2019-04-20T21:00:28.255Z,73.30
2019-04-20T21:02:58.144Z,73.50
2019-04-20T21:05:21.933Z,73.60
2019-04-20T21:07:51.728Z,73.50
2019-04-20T21:10:25.948Z,73.80
2019-04-20T21:12:56.479Z,74.10
2019-04-20T21:15:26.408Z,74.10
2019-04-20T21:18:20.551Z,74.50
2019-04-20T21:20:48.627Z,74.90
2019-04-20T21:23:14.277Z,75.20
2019-04-20T21:25:40.421Z,75.50
2019-04-20T21:28:04.870Z,75.90
2019-04-20T21:30:39.996Z,77.00
2019-04-20T21:33:07.899Z,77.50
2019-04-20T21:35:42.965Z,77.90
2019-04-20T21:38:12.050Z,78.10
2019-04-20T21:40:43.407Z,78.60
2019-04-20T21:43:12.728Z,79.10
2019-04-20T21:45:48.381Z,79.80
2019-04-20T21:48:34.040Z,80.00
2019-04-20T21:51:01.477Z,80.40
2019-04-20T21:53:22.893Z,80.60
2019-04-20T21:55:48.019Z,81.00
2019-04-20T21:58:25.262Z,81.30
2019-04-20T22:01:08.045Z,81.40
2019-04-20T22:03:28.268Z,82.10
2019-04-20T22:06:06.767Z,82.60
2019-04-20T22:08:39.490Z,83.00
2019-04-20T22:11:08.288Z,83.60
2019-04-20T22:13:41.692Z,84.20
2019-04-20T22:16:12.152Z,84.60
2019-04-20T22:18:54.100Z,85.80
2019-04-20T22:21:21.735Z,86.00
2019-04-20T22:24:01.818Z,86.60
2019-04-20T22:26:25.400Z,87.20
2019-04-20T22:28:45.637Z,88.10
2019-04-20T22:31:15.957Z,88.90
2019-04-20T22:33:47.309Z,89.40
2019-04-20T22:36:18.200Z,90.00
2019-04-20T22:39:07.511Z,90.20
2019-04-20T22:41:45.796Z,90.70
2019-04-20T22:44:18.415Z,91.00
2019-04-20T22:46:46.185Z,91.00
2019-04-20T22:49:33.596Z,91.40
2019-04-20T22:51:58.531Z,91.50
2019-04-20T22:54:36.229Z,91.70
2019-04-20T22:57:02.494Z,91.60
2019-04-20T22:59:30.752Z,91.60
2019-04-20T23:01:57.348Z,91.80
2019-04-20T23:04:24.718Z,92.00
2019-04-20T23:06:55.867Z,92.60
2019-04-20T23:09:26.691Z,93.20
2019-04-20T23:12:06.038Z,93.50
2019-04-20T23:14:28.796Z,93.90
2019-04-20T23:16:59.719Z,94.40
2019-04-20T23:19:38.252Z,94.50
2019-04-20T23:22:04.794Z,94.80
2019-04-20T23:24:33.076Z,95.00
2019-04-20T23:27:06.564Z,95.20
2019-04-20T23:29:37.957Z,95.40
2019-04-20T23:32:09.817Z,95.50
2019-04-20T23:34:39.005Z,95.40
2019-04-20T23:37:16.036Z,95.70
2019-04-20T23:39:41.556Z,95.80
2019-04-20T23:42:14.113Z,95.70
2019-04-20T23:44:56.005Z,95.80
2019-04-20T23:47:32.013Z,96.10
2019-04-20T23:50:23.866Z,96.20
2019-04-20T23:53:02.386Z,96.50
2019-04-20T23:55:11.459Z,96.60
2019-04-20T23:57:39.746Z,96.50
